Time;durP1;ratioP1;P1;durP2;ratioP2;P2;SDS_P1;SDS_P2;PMS_P1;PMS_P2;Temp;Humidity;BMP_temperature;BMP_pressure;BME280_temperature;BME280_humidity;BME280_pressure;Samples;Min_cycle;Max_cycle;Signal;HPM_P1;HPM_P2
2021/10/06 00:01:14;;;;;;;8.45;3.00;;;;;;;11.70;49.26;102202.91;3363945;29;20079;-78
2021/10/06 00:02:54;;;;;;;6.28;3.05;;;;;;;11.67;49.29;102200.53;3363383;29;20148;-77
2021/10/06 00:04:35;;;;;;;6.07;2.92;;;;;;;11.62;49.36;102199.28;3363486;29;20048;-76
2021/10/06 00:06:16;;;;;;;4.30;3.28;;;;;;;11.59;49.57;102192.38;3363571;29;20057;-75
2021/10/06 00:07:57;;;;;;;5.35;2.88;;;;;;;11.62;49.63;102199.28;3364433;29;20177;-75
2021/10/06 00:09:37;;;;;;;4.65;2.92;;;;;;;11.62;49.49;102204.63;3364069;29;20044;-75
2021/10/06 00:11:18;;;;;;;4.63;3.35;;;;;;;11.58;49.66;102193.34;3363366;29;20417;-76
2021/10/06 00:12:59;;;;;;;5.85;2.83;;;;;;;11.62;49.55;102204.63;3363692;29;20049;-76
2021/10/06 00:14:40;;;;;;;2.95;2.60;;;;;;;11.60;49.56;102209.25;3363511;29;20041;-76
2021/10/06 00:16:21;;;;;;;10.55;3.40;;;;;;;11.62;49.52;102200.09;3363765;29;20053;-76
2021/10/06 00:18:01;;;;;;;6.00;2.83;;;;;;;11.62;49.62;102199.28;3364002;29;20052;-75
2021/10/06 00:19:42;;;;;;;5.72;3.15;;;;;;;11.63;49.59;102211.63;3363658;29;20053;-76
2021/10/06 00:21:23;;;;;;;7.70;3.55;;;;;;;11.64;49.68;102198.16;3363558;29;20067;-76
2021/10/06 00:23:03;;;;;;;5.07;2.97;;;;;;;11.66;49.62;102203.34;3362883;29;20041;-76
2021/10/06 00:24:44;;;;;;;4.18;3.45;;;;;;;11.70;49.72;102208.25;3363085;29;20057;-75
2021/10/06 00:26:25;;;;;;;4.43;2.92;;;;;;;11.69;49.54;102195.88;3374547;29;20075;-76
2021/10/06 00:28:05;;;;;;;8.73;3.53;;;;;;;11.76;49.30;102206.84;3375424;29;20128;-76
2021/10/06 00:29:47;;;;;;;5.53;3.25;;;;;;;11.75;49.21;102200.66;3376109;29;20127;-76
2021/10/06 00:31:28;;;;;;;4.18;3.10;;;;;;;11.68;49.20;102199.53;3376401;29;20045;-76
2021/10/06 00:33:09;;;;;;;11.55;3.13;;;;;;;11.65;49.34;102205.16;3388502;29;20131;-76
2021/10/06 00:34:49;;;;;;;4.53;3.42;;;;;;;11.60;49.27;102202.06;3378891;29;20107;-75
2021/10/06 00:36:30;;;;;;;4.38;3.10;;;;;;;11.51;49.42;102194.88;3364536;29;20051;-76
2021/10/06 00:38:10;;;;;;;4.50;3.20;;;;;;;11.47;49.47;102210.34;3362450;29;20041;-76
2021/10/06 00:39:51;;;;;;;5.07;3.10;;;;;;;11.48;49.66;102203.16;3363237;29;20108;-76
2021/10/06 00:41:32;;;;;;;4.80;3.30;;;;;;;11.49;49.72;102202.22;3363600;29;20045;-77
2021/10/06 00:43:12;;;;;;;4.72;3.58;;;;;;;11.53;49.64;102208.94;3363575;29;20057;-76
2021/10/06 00:44:53;;;;;;;4.45;2.95;;;;;;;11.57;49.79;102208.53;3363611;29;20040;-75
2021/10/06 00:46:34;;;;;;;6.22;3.08;;;;;;;11.62;49.62;102212.63;3374784;29;20047;-76
2021/10/06 00:48:15;;;;;;;5.13;3.22;;;;;;;11.61;49.59;102206.41;3376189;29;20036;-75
2021/10/06 00:49:55;;;;;;;4.25;3.50;;;;;;;11.60;49.68;102201.22;3375215;29;20096;-75
2021/10/06 00:51:38;;;;;;;6.88;2.47;;;;;;;11.64;50.03;102208.84;3376055;29;20196;-76
2021/10/06 00:53:26;;;;;;;5.03;3.10;;;;;;;11.71;49.94;102204.59;3376184;29;20128;-76
2021/10/06 00:55:08;;;;;;;4.30;3.25;;;;;;;11.73;49.81;102207.13;3361956;29;20449;-75
2021/10/06 00:56:48;;;;;;;7.82;3.45;;;;;;;11.73;49.38;102210.66;3386380;29;20180;-75
2021/10/06 00:58:29;;;;;;;4.15;3.60;;;;;;;11.72;49.36;102206.31;3388130;29;20079;-75
2021/10/06 01:00:10;;;;;;;3.60;3.15;;;;;;;11.71;49.33;102215.28;3385452;29;20040;-74
2021/10/06 01:01:51;;;;;;;5.55;2.88;;;;;;;11.71;49.63;102209.94;3388904;29;20135;-75
2021/10/06 01:03:32;;;;;;;7.97;3.42;;;;;;;11.70;49.85;102205.59;3388876;29;20071;-75
2021/10/06 01:05:13;;;;;;;4.20;3.05;;;;;;;11.74;49.23;102209.66;3387089;29;20159;-75
2021/10/06 01:06:54;;;;;;;7.80;3.55;;;;;;;11.74;49.59;102198.97;3375737;29;20056;-74
2021/10/06 01:08:35;;;;;;;6.25;3.38;;;;;;;11.72;49.43;102200.97;3375413;29;20059;-75
2021/10/06 01:10:16;;;;;;;7.32;3.70;;;;;;;11.73;49.22;102205.31;3375510;29;20084;-74
2021/10/06 01:11:59;;;;;;;3.90;3.30;;;;;;;11.70;49.47;102208.25;3375892;29;20055;-75
2021/10/06 01:13:39;;;;;;;4.82;3.80;;;;;;;11.65;49.37;102194.47;3375821;29;20040;-74
2021/10/06 01:15:20;;;;;;;7.43;3.33;;;;;;;11.67;49.27;102210.34;3383545;29;20047;-75
2021/10/06 01:17:20;;;;;;;4.90;3.45;;;;;;;11.64;49.49;102207.97;3363247;29;20071;-75
2021/10/06 01:19:01;;;;;;;6.05;4.00;;;;;;;11.60;49.27;102211.91;3374852;29;20075;-75
2021/10/06 01:20:41;;;;;;;3.88;3.35;;;;;;;11.57;49.50;102213.03;3365340;29;20127;-75
2021/10/06 01:22:22;;;;;;;3.92;2.42;;;;;;;11.62;49.80;102205.44;3362926;29;20056;-75
2021/10/06 01:24:03;;;;;;;7.53;3.83;;;;;;;11.63;49.39;102216.97;3363106;29;20204;-75
2021/10/06 01:25:44;;;;;;;3.28;2.75;;;;;;;11.62;49.31;102213.47;3363674;29;20401;-76
2021/10/06 01:27:24;;;;;;;6.18;3.78;;;;;;;11.64;49.41;102218.66;3363183;29;20465;-76
2021/10/06 01:29:05;;;;;;;3.83;2.97;;;;;;;11.62;49.48;102221.47;3361970;29;20533;-74
2021/10/06 01:30:46;;;;;;;4.82;3.00;;;;;;;11.68;50.49;102222.75;3362343;29;20071;-77
2021/10/06 01:32:26;;;;;;;4.70;2.95;;;;;;;11.73;50.09;102221.34;3362606;29;20056;-75
2021/10/06 01:34:07;;;;;;;5.82;3.97;;;;;;;11.78;49.71;102221.75;3362354;29;20076;-74
2021/10/06 01:35:48;;;;;;;5.53;3.38;;;;;;;11.75;49.76;102224.72;3371521;29;20500;-76
2021/10/06 01:37:29;;;;;;;5.93;3.38;;;;;;;11.79;50.00;102215.41;3375460;29;20449;-75
2021/10/06 01:39:10;;;;;;;8.05;3.75;;;;;;;11.89;49.77;102217.28;3375402;29;20051;-75
2021/10/06 01:40:50;;;;;;;4.35;3.20;;;;;;;11.91;49.37;102223.34;3375362;29;20048;-75
2021/10/06 01:42:31;;;;;;;5.80;3.65;;;;;;;11.85;49.36;102216.72;3375629;29;20421;-73
2021/10/06 01:44:17;;;;;;;3.83;2.88;;;;;;;11.90;49.23;102218.97;3375662;29;20044;-72
2021/10/06 01:45:57;;;;;;;5.22;4.03;;;;;;;11.95;49.24;102227.41;3364985;29;20072;-72
2021/10/06 01:47:38;;;;;;;7.10;3.75;;;;;;;11.95;49.01;102219.38;3363077;29;20048;-74
2021/10/06 01:49:19;;;;;;;5.72;3.95;;;;;;;11.93;48.88;102224.91;3361680;29;20544;-71
2021/10/06 01:50:59;;;;;;;4.18;3.30;;;;;;;11.87;49.06;102232.63;3362499;29;20045;-75
2021/10/06 01:52:40;;;;;;;5.22;3.40;;;;;;;11.85;49.48;102226.53;3362567;29;20045;-76
2021/10/06 01:54:20;;;;;;;6.75;3.50;;;;;;;11.89;49.54;102236.00;3361690;29;20097;-74
2021/10/06 01:56:02;;;;;;;5.97;4.43;;;;;;;11.87;49.16;102225.44;3372754;29;20080;-73
2021/10/06 01:57:43;;;;;;;4.80;3.10;;;;;;;11.92;49.22;102233.88;3375241;29;20468;-73
2021/10/06 01:59:23;;;;;;;3.92;3.38;;;;;;;11.95;49.43;102232.75;3375544;29;20048;-74
2021/10/06 02:01:04;;;;;;;4.13;3.53;;;;;;;12.02;49.30;102228.53;3375485;29;20415;-74
2021/10/06 02:02:45;;;;;;;5.75;3.70;;;;;;;12.11;49.14;102238.41;3375022;29;20068;-73
2021/10/06 02:04:25;;;;;;;6.05;3.03;;;;;;;12.16;48.97;102238.81;3375439;29;20040;-74
2021/10/06 02:06:06;;;;;;;7.40;3.42;;;;;;;12.12;48.82;102237.41;3362684;29;20580;-73
2021/10/06 02:07:47;;;;;;;8.50;3.42;;;;;;;12.11;49.21;102237.56;3362124;29;20554;-74
2021/10/06 02:09:27;;;;;;;6.40;3.30;;;;;;;12.19;49.52;102232.34;3362527;29;20047;-74
2021/10/06 02:11:08;;;;;;;7.57;3.83;;;;;;;12.29;49.25;102234.97;3362486;29;20045;-72
2021/10/06 02:12:49;;;;;;;9.45;4.07;;;;;;;12.30;48.77;102231.34;3362731;29;20049;-74
2021/10/06 02:14:30;;;;;;;4.53;3.33;;;;;;;12.32;48.66;102248.09;3374120;29;20059;-74
2021/10/06 02:16:10;;;;;;;8.40;3.63;;;;;;;12.32;48.51;102242.75;3375556;29;20428;-75
2021/10/06 02:17:52;;;;;;;6.60;3.83;;;;;;;12.30;48.42;102247.38;3387455;29;20044;-73
2021/10/06 02:19:33;;;;;;;6.43;3.53;;;;;;;12.27;48.33;102247.66;3377577;29;20044;-73
2021/10/06 02:21:13;;;;;;;5.13;3.83;;;;;;;12.26;48.50;102245.97;3375336;29;20044;-73
2021/10/06 02:22:54;;;;;;;8.13;3.17;;;;;;;12.27;48.50;102250.34;3375333;29;20049;-74
2021/10/06 02:24:35;;;;;;;4.50;3.35;;;;;;;12.28;48.34;102254.69;3398636;29;20043;-76
2021/10/06 02:26:15;;;;;;;7.13;3.45;;;;;;;12.25;48.41;102246.97;3366886;29;20082;-74
2021/10/06 02:27:56;;;;;;;5.43;3.55;;;;;;;12.21;48.97;102257.94;3362492;29;20080;-75
2021/10/06 02:29:37;;;;;;;6.80;3.60;;;;;;;12.23;48.92;102261.31;3362401;29;20045;-72
2021/10/06 02:31:17;;;;;;;5.20;3.75;;;;;;;12.22;48.87;102259.63;3362041;29;20037;-74
2021/10/06 02:32:58;;;;;;;6.43;3.55;;;;;;;12.26;48.74;102254.81;3362285;29;20093;-73
2021/10/06 02:34:39;;;;;;;9.88;4.65;;;;;;;12.23;48.72;102261.31;3362246;29;20045;-74
2021/10/06 02:36:19;;;;;;;7.00;3.38;;;;;;;12.24;48.56;102256.81;3363281;29;20052;-74
2021/10/06 02:38:00;;;;;;;6.72;3.58;;;;;;;12.19;48.69;102251.91;3362248;29;20053;-73
2021/10/06 02:39:40;;;;;;;6.05;3.25;;;;;;;12.17;48.68;102259.22;3362326;29;20053;-74
2021/10/06 02:41:21;;;;;;;6.05;3.50;;;;;;;12.22;48.67;102256.13;3362101;29;20041;-74
2021/10/06 02:43:02;;;;;;;6.20;4.30;;;;;;;12.25;48.51;102260.34;3362284;29;20063;-75
2021/10/06 02:44:43;;;;;;;9.65;3.70;;;;;;;12.20;48.40;102253.56;3366854;29;20048;-75
2021/10/06 02:46:23;;;;;;;5.50;4.05;;;;;;;12.16;48.73;102256.69;3375364;29;20054;-75
2021/10/06 02:48:04;;;;;;;5.35;3.95;;;;;;;12.19;48.89;102257.25;3378188;29;20099;-73
2021/10/06 02:49:45;;;;;;;9.18;4.00;;;;;;;12.22;48.74;102258.78;3377603;29;20045;-74
2021/10/06 02:51:25;;;;;;;7.47;4.63;;;;;;;12.24;48.71;102262.16;3377900;29;20086;-76
2021/10/06 02:53:06;;;;;;;6.68;4.00;;;;;;;12.22;48.63;102266.81;3377886;29;20036;-76
2021/10/06 02:54:47;;;;;;;4.47;3.25;;;;;;;12.31;49.33;102265.94;3372854;29;20060;-75
2021/10/06 02:56:27;;;;;;;6.35;3.55;;;;;;;12.40;48.96;102264.25;3365304;29;20136;-74
2021/10/06 02:58:08;;;;;;;7.18;4.30;;;;;;;12.43;48.72;102266.63;3372669;29;20037;-74
2021/10/06 02:59:49;;;;;;;9.88;4.75;;;;;;;12.36;48.61;102269.03;3364545;29;20055;-74
2021/10/06 03:01:30;;;;;;;6.85;3.80;;;;;;;12.35;48.69;102264.69;3364557;29;20056;-75
2021/10/06 03:03:10;;;;;;;4.60;3.72;;;;;;;12.41;48.68;102272.13;3364566;29;20091;-74
2021/10/06 03:04:51;;;;;;;4.30;3.45;;;;;;;12.44;48.56;102269.19;3366078;29;20063;-73
2021/10/06 03:06:32;;;;;;;5.97;3.90;;;;;;;12.44;48.30;102271.84;3364375;29;20077;-75
2021/10/06 03:08:12;;;;;;;12.80;4.53;;;;;;;12.38;48.63;102266.22;3389251;29;20044;-75
2021/10/06 03:09:53;;;;;;;6.85;4.20;;;;;;;12.34;48.55;102270.16;3369474;29;20182;-75
2021/10/06 03:11:34;;;;;;;6.95;4.00;;;;;;;12.32;48.54;102274.84;3364377;29;20100;-75
2021/10/06 03:13:14;;;;;;;5.82;4.28;;;;;;;12.26;48.57;102278.06;3364228;29;20052;-75
2021/10/06 03:14:55;;;;;;;4.10;3.40;;;;;;;12.30;49.19;102284.81;3364499;29;20040;-74
2021/10/06 03:16:36;;;;;;;9.13;3.80;;;;;;;12.34;48.89;102286.19;3364569;29;20045;-75
2021/10/06 03:18:16;;;;;;;7.25;4.30;;;;;;;12.29;48.74;102283.97;3364525;29;20457;-74
2021/10/06 03:19:57;;;;;;;8.63;4.13;;;;;;;12.23;48.79;102274.66;3364376;29;20049;-73
2021/10/06 03:21:37;;;;;;;10.15;4.57;;;;;;;12.24;49.04;102275.53;3364496;29;20056;-73
2021/10/06 03:23:18;;;;;;;9.43;4.20;;;;;;;12.23;48.94;102279.19;3389117;29;20064;-74
2021/10/06 03:24:59;;;;;;;5.15;4.00;;;;;;;12.19;48.80;102278.63;3379776;29;20044;-75
2021/10/06 03:26:40;;;;;;;6.13;4.13;;;;;;;12.16;48.75;102278.91;3377099;29;20419;-76
2021/10/06 03:28:20;;;;;;;8.73;5.00;;;;;;;12.16;48.92;102283.44;3377190;29;20135;-75
2021/10/06 03:30:02;;;;;;;8.10;3.78;;;;;;;12.16;48.80;102275.41;3377353;29;20037;-75
2021/10/06 03:31:43;;;;;;;;;;;;;;;12.35;48.79;102282.56;3377475;29;20044;-72
2021/10/06 03:33:24;;;;;;;6.57;4.45;;;;;;;12.35;48.51;102272.69;3377170;29;20375;-75
2021/10/06 03:35:05;;;;;;;6.35;3.70;;;;;;;12.24;48.46;102275.53;3368096;29;20040;-75
2021/10/06 03:36:46;;;;;;;6.07;3.50;;;;;;;12.32;48.96;102278.34;3364268;29;20505;-74
2021/10/06 03:38:26;;;;;;;10.38;4.15;;;;;;;12.39;48.77;102286.63;3364379;29;20202;-76
2021/10/06 03:40:08;;;;;;;9.88;4.18;;;;;;;12.33;48.64;102284.53;3364276;29;20048;-77
2021/10/06 03:41:49;;;;;;;5.88;4.03;;;;;;;12.20;48.75;102279.47;3364297;29;20056;-75
2021/10/06 03:43:29;;;;;;;8.05;3.92;;;;;;;12.17;48.76;102285.09;3364093;29;20365;-76
2021/10/06 03:45:11;;;;;;;6.25;4.63;;;;;;;12.25;48.88;102279.06;3376877;29;20072;-75
2021/10/06 03:46:52;;;;;;;;;;;;;;;12.40;48.71;102277.63;3377684;29;20060;-75
2021/10/06 03:48:33;;;;;;;6.63;3.67;;;;;;;12.42;48.72;102284.53;3377310;29;19923;-77
2021/10/06 03:50:15;;;;;;;8.48;4.10;;;;;;;12.42;48.35;102279.19;3376900;29;20052;-75
2021/10/06 03:51:55;;;;;;;9.55;3.85;;;;;;;12.36;48.41;102281.56;3377025;29;20123;-75
2021/10/06 03:53:36;;;;;;;6.85;3.88;;;;;;;12.34;48.61;102283.53;3375116;29;20036;-74
2021/10/06 03:55:17;;;;;;;5.90;4.00;;;;;;;12.36;48.68;102290.44;3388695;29;20063;-75
2021/10/06 03:57:01;;;;;;;8.00;3.92;;;;;;;12.40;48.52;102280.31;3368744;29;20053;-76
2021/10/06 03:58:42;;;;;;;6.18;4.15;;;;;;;12.40;48.57;102275.78;3363440;29;20076;-76
2021/10/06 04:00:23;;;;;;;5.72;3.72;;;;;;;12.44;48.39;102279.00;3363925;29;20075;-77
2021/10/06 04:02:03;;;;;;;6.63;4.05;;;;;;;12.47;48.49;102285.91;3363855;29;20044;-77
2021/10/06 04:03:44;;;;;;;6.55;4.22;;;;;;;12.47;48.33;102284.09;3368875;29;20056;-75
2021/10/06 04:05:25;;;;;;;8.23;4.32;;;;;;;12.46;48.35;102287.75;3376844;29;20060;-77
2021/10/06 04:07:06;;;;;;;5.30;3.88;;;;;;;12.40;48.25;102291.00;3376604;29;20056;-76
2021/10/06 04:08:47;;;;;;;11.93;4.32;;;;;;;12.36;48.49;102295.78;3376460;29;20040;-77
2021/10/06 04:10:28;;;;;;;8.38;4.43;;;;;;;12.41;48.48;102290.00;3401741;29;20044;-77
2021/10/06 04:12:09;;;;;;;7.50;4.40;;;;;;;12.44;48.41;102298.59;3381524;29;20055;-76
2021/10/06 04:13:49;;;;;;;6.57;4.35;;;;;;;12.43;48.38;102298.75;3375048;29;20075;-78
2021/10/06 04:15:30;;;;;;;8.07;4.57;;;;;;;12.46;48.32;102301.13;3376918;29;20531;-76
2021/10/06 04:17:11;;;;;;;5.75;4.35;;;;;;;12.46;48.27;102298.44;3376596;29;20050;-77
2021/10/06 04:18:52;;;;;;;7.18;3.95;;;;;;;12.40;48.25;102296.34;3376897;29;20045;-77
2021/10/06 04:20:33;;;;;;;5.68;4.45;;;;;;;12.33;48.47;102296.06;3375701;29;20135;-76
2021/10/06 04:22:14;;;;;;;8.13;4.82;;;;;;;12.34;48.39;102307.59;3376766;29;20044;-78
2021/10/06 04:23:55;;;;;;;9.27;5.38;;;;;;;12.32;48.41;102302.41;3376173;29;20060;-75
2021/10/06 04:25:38;;;;;;;7.50;4.80;;;;;;;12.28;48.50;102294.81;3376743;29;20052;-78
2021/10/06 04:27:19;;;;;;;8.98;5.40;;;;;;;12.21;48.45;102292.72;3376906;29;20051;-82
2021/10/06 04:28:59;;;;;;;7.15;4.43;;;;;;;12.25;48.37;102293.25;3376456;29;20124;-80
2021/10/06 04:30:40;;;;;;;16.63;5.25;;;;;;;12.27;48.55;102295.81;3386105;29;20036;-77
2021/10/06 04:32:21;;;;;;;7.82;5.40;;;;;;;12.23;48.53;102298.72;3379303;29;20052;-75
2021/10/06 04:34:01;;;;;;;11.45;5.60;;;;;;;12.13;48.61;102308.63;3366944;29;20040;-77
2021/10/06 04:35:42;;;;;;;10.63;4.93;;;;;;;12.04;48.93;102306.75;3363573;29;20048;-75
2021/10/06 04:37:23;;;;;;;9.55;5.10;;;;;;;11.96;49.12;102314.63;3375967;29;20051;-77
2021/10/06 04:39:04;;;;;;;12.27;5.05;;;;;;;11.91;49.37;102316.88;3366191;29;20515;-77
2021/10/06 04:40:45;;;;;;;7.38;4.97;;;;;;;11.96;49.46;102309.28;3364195;29;20432;-75
2021/10/06 04:42:25;;;;;;;18.67;6.30;;;;;;;12.08;49.24;102310.00;3363534;29;20148;-75
2021/10/06 04:44:06;;;;;;;8.98;4.85;;;;;;;12.18;49.11;102316.19;3374767;29;20130;-77
2021/10/06 04:45:47;;;;;;;12.13;5.47;;;;;;;12.32;49.29;102318.47;3376251;29;20231;-76
2021/10/06 04:47:27;;;;;;;12.40;5.22;;;;;;;12.40;48.91;102317.75;3373404;29;20055;-77
2021/10/06 04:49:09;;;;;;;;;;;;;;;12.59;48.87;102320.38;3376587;29;20527;-78
2021/10/06 04:50:50;;;;;;;12.48;5.47;;;;;;;12.66;48.62;102318.00;3376320;29;19930;-78
2021/10/06 04:52:30;;;;;;;13.13;6.00;;;;;;;12.71;48.37;102312.22;3378302;29;20050;-78
2021/10/06 04:54:11;;;;;;;10.25;4.93;;;;;;;12.71;48.13;102320.25;3363996;29;20555;-78
2021/10/06 04:55:52;;;;;;;10.65;5.03;;;;;;;12.65;48.14;102319.84;3364351;29;20104;-76
2021/10/06 04:57:33;;;;;;;11.70;5.10;;;;;;;12.63;48.29;102329.00;3387028;29;20092;-77
2021/10/06 04:59:13;;;;;;;13.00;6.40;;;;;;;12.56;48.22;102319.84;3379524;29;20514;-75
2021/10/06 05:00:54;;;;;;;11.98;6.57;;;;;;;12.49;48.21;102327.56;3377071;29;20524;-77
2021/10/06 05:02:35;;;;;;;14.73;6.72;;;;;;;12.43;48.46;102315.63;3376031;29;20496;-76
2021/10/06 05:04:17;;;;;;;9.70;5.25;;;;;;;12.47;48.52;102324.22;3392562;29;20043;-75
2021/10/06 05:05:57;;;;;;;10.55;5.47;;;;;;;12.57;48.38;102325.06;3367296;29;20151;-75
2021/10/06 05:07:38;;;;;;;10.88;6.13;;;;;;;12.63;48.13;102324.47;3362351;29;20120;-76
2021/10/06 05:09:19;;;;;;;14.75;6.50;;;;;;;12.61;48.04;102337.16;3360117;29;20044;-76
2021/10/06 05:11:00;;;;;;;12.13;6.43;;;;;;;12.57;48.03;102330.41;3362443;29;20047;-76
2021/10/06 05:12:41;;;;;;;7.50;5.53;;;;;;;12.51;48.03;102324.78;3362973;29;20104;-83
2021/10/06 05:14:23;;;;;;;9.60;5.43;;;;;;;12.58;48.33;102333.94;3371481;29;20120;-77
2021/10/06 05:16:04;;;;;;;10.77;5.57;;;;;;;12.58;48.14;102337.44;3375939;29;20044;-77
2021/10/06 05:17:45;;;;;;;11.65;5.65;;;;;;;12.54;48.17;102346.72;3375627;29;20104;-77
2021/10/06 05:19:26;;;;;;;16.83;6.50;;;;;;;12.52;48.08;102346.03;3374712;29;20135;-75
2021/10/06 05:21:06;;;;;;;8.43;5.10;;;;;;;12.51;48.17;102347.00;3375489;29;20082;-80
2021/10/06 05:22:47;;;;;;;10.35;5.50;;;;;;;12.67;48.42;102349.09;3376244;29;20052;-76
2021/10/06 05:24:28;;;;;;;8.18;5.38;;;;;;;12.79;48.05;102339.09;3375100;29;20073;-78
2021/10/06 05:26:08;;;;;;;13.27;5.40;;;;;;;12.96;49.02;102340.19;3374919;29;20139;-78
2021/10/06 05:27:50;;;;;;;9.13;5.53;;;;;;;13.07;48.22;102337.34;3361902;29;20105;-79
2021/10/06 05:29:31;;;;;;;16.42;5.95;;;;;;;13.17;48.68;102338.16;3373080;29;20045;-72
2021/10/06 05:31:12;;;;;;;9.35;5.28;;;;;;;13.24;47.81;102341.94;3375387;29;20041;-71
2021/10/06 05:32:52;;;;;;;7.95;5.05;;;;;;;13.30;47.57;102340.53;3374875;29;20190;-73
2021/10/06 05:34:33;;;;;;;11.98;6.28;;;;;;;13.37;47.26;102349.69;3366036;29;20465;-77
2021/10/06 05:36:17;;;;;;;14.07;5.85;;;;;;;13.50;47.05;102352.00;3361060;29;20528;-72
2021/10/06 05:37:58;;;;;;;12.93;5.75;;;;;;;13.72;46.77;102348.09;3362242;29;20677;-72
2021/10/06 05:39:39;;;;;;;12.50;5.13;;;;;;;14.01;46.30;102347.06;3362555;29;20184;-69
2021/10/06 05:41:19;;;;;;;10.40;5.88;;;;;;;14.35;45.75;102353.47;3361177;29;20073;-72
2021/10/06 05:43:00;;;;;;;18.38;5.20;;;;;;;14.74;45.62;102350.44;3358949;29;20147;-70
2021/10/06 05:44:40;;;;;;;10.00;5.70;;;;;;;15.17;44.69;102350.56;3374705;29;20144;-71
2021/10/06 05:46:22;;;;;;;14.05;4.88;;;;;;;15.47;43.53;102347.34;3375292;29;20052;-71
2021/10/06 05:48:03;;;;;;;9.00;4.30;;;;;;;15.82;43.83;102350.00;3368011;29;20136;-72
2021/10/06 05:49:46;;;;;;;8.75;4.90;;;;;;;16.18;42.83;102350.59;3362233;29;20041;-71
2021/10/06 05:51:27;;;;;;;9.25;5.20;;;;;;;16.51;41.79;102354.16;3362500;29;20092;-72
2021/10/06 05:53:07;;;;;;;10.65;5.60;;;;;;;16.81;41.10;102356.38;3362490;29;20037;-71
2021/10/06 05:54:49;;;;;;;8.50;5.30;;;;;;;17.09;40.71;102355.00;3361909;29;20047;-78
2021/10/06 05:56:29;;;;;;;10.10;5.18;;;;;;;17.44;40.21;102350.97;3374293;29;20095;-75
2021/10/06 05:58:10;;;;;;;12.30;5.70;;;;;;;17.72;39.41;102366.72;3369339;29;20053;-76
2021/10/06 05:59:53;;;;;;;10.25;5.90;;;;;;;17.75;38.58;102352.03;3375114;29;20056;-77
2021/10/06 06:01:33;;;;;;;9.63;4.95;;;;;;;17.83;38.86;102352.03;3370076;29;20040;-75
2021/10/06 06:03:15;;;;;;;12.88;6.35;;;;;;;18.00;38.16;102358.19;3385264;29;20163;-75
2021/10/06 06:04:56;;;;;;;13.10;6.20;;;;;;;18.16;37.63;102347.25;3377156;29;20050;-75
2021/10/06 06:06:41;;;;;;;12.45;5.80;;;;;;;18.49;37.10;102347.03;3374856;29;20060;-75
2021/10/06 06:08:23;;;;;;;10.75;5.15;;;;;;;18.85;37.28;102358.03;3376636;29;20483;-76
2021/10/06 06:10:07;;;;;;;12.67;6.67;;;;;;;19.02;35.65;102358.69;3376032;29;20144;-75
2021/10/06 06:11:49;;;;;;;20.38;6.75;;;;;;;18.94;35.78;102361.50;3374788;29;20321;-75
2021/10/06 06:13:30;;;;;;;14.30;6.22;;;;;;;19.02;36.21;102353.28;3363414;29;20099;-75
2021/10/06 06:15:11;;;;;;;12.98;6.82;;;;;;;19.11;35.88;102357.59;3362506;29;20041;-77
2021/10/06 06:16:52;;;;;;;13.80;6.93;;;;;;;19.13;35.18;102357.44;3362797;29;20504;-76
2021/10/06 06:18:33;;;;;;;8.70;6.78;;;;;;;19.13;35.37;102360.97;3362391;29;20048;-77
2021/10/06 06:20:16;;;;;;;22.38;7.65;;;;;;;19.25;35.09;102357.78;3361957;29;20049;-75
2021/10/06 06:21:57;;;;;;;9.57;6.47;;;;;;;19.34;34.84;102351.28;3362533;29;20045;-76
2021/10/06 06:23:37;;;;;;;15.03;5.43;;;;;;;19.48;35.32;102358.53;3374306;29;20055;-78
2021/10/06 06:25:19;;;;;;;14.57;6.17;;;;;;;19.54;34.85;102357.78;3375021;29;20104;-76
2021/10/06 06:27:00;;;;;;;10.93;5.28;;;;;;;19.63;35.15;102358.50;3374865;29;20056;-74
2021/10/06 06:28:41;;;;;;;9.95;5.43;;;;;;;19.79;34.89;102349.34;3374684;29;20052;-76
2021/10/06 06:30:22;;;;;;;8.00;5.20;;;;;;;19.89;34.23;102358.00;3375497;29;20051;-75
2021/10/06 06:32:03;;;;;;;9.53;6.10;;;;;;;19.92;34.29;102365.75;3374854;29;20476;-76
2021/10/06 06:33:45;;;;;;;14.43;5.78;;;;;;;19.94;33.98;102369.13;3373215;29;20056;-77
2021/10/06 06:35:26;;;;;;;11.32;6.10;;;;;;;19.98;33.48;102365.00;3360788;29;20144;-76
2021/10/06 06:37:06;;;;;;;10.83;6.20;;;;;;;20.08;33.64;102361.13;3362088;29;20065;-76
2021/10/06 06:38:48;;;;;;;18.33;7.93;;;;;;;20.27;32.93;102371.34;3373465;29;20052;-77
2021/10/06 06:40:28;;;;;;;10.75;7.00;;;;;;;20.62;33.07;102374.19;3362355;29;20048;-77
2021/10/06 06:42:09;;;;;;;16.67;6.83;;;;;;;20.99;32.19;102381.16;3372863;29;20101;-75
2021/10/06 06:43:50;;;;;;;10.07;5.97;;;;;;;21.26;31.70;102367.78;3373170;29;20048;-76
2021/10/06 06:45:31;;;;;;;13.93;5.43;;;;;;;21.47;31.36;102380.44;3374226;29;20056;-76
2021/10/06 06:47:13;;;;;;;13.18;6.10;;;;;;;21.73;30.93;102377.84;3374000;29;20104;-75
2021/10/06 06:48:53;;;;;;;7.00;5.13;;;;;;;21.95;30.51;102377.72;3374367;29;20040;-76
2021/10/06 06:50:36;;;;;;;8.90;5.80;;;;;;;22.10;30.15;102363.97;3374534;29;20056;-75
2021/10/06 06:52:17;;;;;;;12.80;5.47;;;;;;;22.21;29.67;102369.66;3374489;29;21171;-79
2021/10/06 06:53:59;;;;;;;9.68;5.55;;;;;;;22.28;29.41;102369.69;3373402;29;20045;-77
2021/10/06 06:55:40;;;;;;;9.63;4.90;;;;;;;22.45;29.51;102366.56;3373398;29;20535;-71
2021/10/06 06:57:21;;;;;;;6.70;4.77;;;;;;;22.81;29.70;102372.41;3374365;29;20044;-70
2021/10/06 06:59:02;;;;;;;9.20;5.27;;;;;;;23.23;29.37;102374.88;3374834;29;20500;-69
2021/10/06 07:00:42;;;;;;;12.33;6.00;;;;;;;23.39;28.22;102374.44;3373262;29;20576;-72
2021/10/06 07:02:23;;;;;;;10.10;5.77;;;;;;;23.36;28.28;102374.84;3374604;29;20067;-73
2021/10/06 07:04:05;;;;;;;10.97;5.23;;;;;;;23.35;28.35;102380.50;3373685;29;20043;-70
2021/10/06 07:05:46;;;;;;;14.02;6.22;;;;;;;23.25;28.01;102378.22;3372868;29;20114;-72
2021/10/06 07:07:27;;;;;;;11.15;4.53;;;;;;;23.25;28.29;102373.63;3372457;29;20563;-74
2021/10/06 07:09:09;;;;;;;12.57;5.00;;;;;;;23.43;28.72;102381.09;3373778;29;20083;-76
2021/10/06 07:10:51;;;;;;;7.32;5.20;;;;;;;23.49;27.93;102373.97;3373425;29;20297;-77
2021/10/06 07:12:32;;;;;;;13.67;4.83;;;;;;;23.50;27.65;102381.91;3372003;29;20041;-77
2021/10/06 07:14:13;;;;;;;9.30;5.00;;;;;;;23.68;27.41;102383.13;3400502;29;20054;-75
2021/10/06 07:15:54;;;;;;;10.90;5.07;;;;;;;23.95;27.03;102379.22;3380259;29;20048;-77
2021/10/06 07:17:35;;;;;;;9.40;4.40;;;;;;;24.36;26.71;102391.56;3374916;29;20044;-76
2021/10/06 07:19:19;;;;;;;5.50;4.72;;;;;;;24.60;26.42;102386.38;3373863;29;20044;-76
2021/10/06 07:21:04;;;;;;;9.13;5.63;;;;;;;24.65;25.83;102383.00;3373156;29;20828;-78
2021/10/06 07:22:45;;;;;;;12.53;7.97;;;;;;;24.68;25.56;102383.41;3374613;29;20040;-76
2021/10/06 07:24:28;;;;;;;10.05;5.22;;;;;;;24.81;25.59;102390.63;3375245;29;20081;-77
2021/10/06 07:26:12;;;;;;;11.13;5.47;;;;;;;24.95;25.61;102394.06;3374575;29;20044;-77
2021/10/06 07:27:53;;;;;;;11.45;6.70;;;;;;;25.16;25.17;102379.19;3376368;29;20800;-77
2021/10/06 07:29:34;;;;;;;7.57;4.80;;;;;;;25.46;24.98;102385.56;3372065;29;20431;-78
2021/10/06 07:31:14;;;;;;;8.23;4.25;;;;;;;25.79;24.62;102383.47;3367373;29;20036;-78
2021/10/06 07:32:55;;;;;;;7.47;3.80;;;;;;;25.89;24.28;102375.59;3375648;29;20036;-77
2021/10/06 07:34:36;;;;;;;9.70;4.57;;;;;;;26.00;24.52;102383.03;3378269;29;20083;-76
2021/10/06 07:36:17;;;;;;;8.53;4.40;;;;;;;26.08;24.42;102377.22;3376970;29;20131;-79
2021/10/06 07:37:58;;;;;;;10.05;3.75;;;;;;;26.33;24.43;102382.53;3375659;29;20045;-77
2021/10/06 07:39:40;;;;;;;7.10;4.93;;;;;;;26.57;23.49;102382.59;3376838;29;20045;-72
2021/10/06 07:41:21;;;;;;;9.43;4.80;;;;;;;26.62;23.33;102388.19;3376531;29;20175;-74
2021/10/06 07:43:03;;;;;;;4.57;3.47;;;;;;;26.73;23.78;102387.38;3371227;29;20060;-75
2021/10/06 07:44:45;;;;;;;10.60;4.33;;;;;;;26.94;24.05;102388.69;3374167;29;20032;-70
2021/10/06 07:46:26;;;;;;;5.88;4.22;;;;;;;27.01;23.48;102385.00;3376950;29;20044;-70
2021/10/06 07:48:07;;;;;;;5.70;4.18;;;;;;;27.01;22.92;102387.75;3376919;29;20044;-73
2021/10/06 07:49:47;;;;;;;7.10;4.10;;;;;;;27.07;22.91;102384.03;3376914;29;20055;-69